Meteo Giornale » Osservazioni meteo Nicaragua » Managua A C Sandino
ore: 17:00 - Osservazioni Meteo Managua A C Sandino
Lat. 12° 9' N Lon. 86° 10' W Alt. 50 metri s.l.m.
29 °C
Nuvoloso
Temp. 24 Ore
25 °C
35 °C
Sud-Est
18.5 Km/h
Dew point 23 °C
Umidità 70 %
Visibilità 10 Km
Il sole sorge alle ore 05:34
Il sole tramonta alle ore 17:55
| Data e Ora | Cielo e Fenomeni | T °C | DP °C | Um. % | Pres. hPa | Vis. km | Vento km/h | |
|---|---|---|---|---|---|---|---|---|
| Oggi h: 17:00 | Nuvoloso | 29 | 23 | 70 | 1010 | 10 | SE 18.5 | |
| Oggi h: 16:00 | Nuvoloso | 30 | 25 | 74 | 1010 | 10 | SE 29.6 | |
| Oggi h: 15:00 | Nuvoloso | 31 | 24 | 66 | 1010 | 10 | SE 25.9 | |
| Oggi h: 14:00 | Molto Nuvoloso | 33 | 22 | 52 | 1010 | 7 | E/SE 18.5 | |
| Oggi h: 13:00 | Molto Nuvoloso | 35 | 23 | 49 | 1010 | 10 | E 25.9 | |
| Oggi h: 12:00 | Molto Nuvoloso | 34 | 24 | 56 | 1011 | 10 | E 14.8 | |
| Oggi h: 11:00 | Nuvoloso | 34 | 23 | 52 | 1012 | 10 | E 18.5 | |
| Oggi h: 10:00 | Nuvoloso | 33 | 24 | 59 | 1013 | 10 | E 14.8 | |
| Oggi h: 09:00 | Molto Nuvoloso | 31 | 24 | 66 | 1013 | 10 | E/NE 22.2 | |
| Oggi h: 08:00 | Molto Nuvoloso | 30 | 24 | 70 | 1012 | 10 | SE 11.1 | |
| Oggi h: 07:00 | Molto Nuvoloso | 26 | 24 | 88 | 1012 | 10 | S 7.4 | |
| Oggi h: 06:00 | Nuvoloso | 26 | 23 | 83 | 1012 | 10 | N 0 | |
| Oggi h: 05:00 | Nuvoloso | 25 | 24 | 94 | 1011 | 10 | N 0 | |
| Oggi h: 04:00 | Nuvoloso | 26 | 24 | 88 | 1011 | 10 | S/SO 7.4 | |
| Oggi h: 03:00 | Nuvoloso | 26 | 24 | 88 | 1010 | 10 | S 7.4 | |
| Oggi h: 02:00 | Nuvoloso | 26 | 24 | 88 | 1011 | 10 | SE 7.4 | |
| Oggi h: 01:00 | Nuvoloso | 26 | 23 | 83 | 1012 | 10 | SE 7.4 | |
| Oggi h: 00:00 | Nuvoloso | 27 | 24 | 83 | 1012 | 10 | S/SE 7.4 | |
| Ieri h: 23:00 | Nuvoloso | 27 | 24 | 83 | 1012 | 10 | N 0 | |
| Ieri h: 22:00 | Nuvoloso | 28 | 24 | 78 | 1012 | 10 | E/SE 7.4 | |
| Ieri h: 21:00 | Nuvoloso | 29 | 24 | 74 | 1011 | 10 | E 14.8 | |
| Ieri h: 20:00 | Nuvoloso | 29 | 23 | 70 | 1011 | 10 | E 7.4 | |
| Ieri h: 19:00 | Nuvoloso | 30 | 25 | 74 | 1010 | 10 | E 7.4 | |
| Ieri h: 18:00 | Nuvoloso | 30 | 25 | 74 | 1009 | 10 | SE 14.8 | |



